sensor_id;sensor_type;location;lat;lon;timestamp;P1;durP1;ratioP1;P2;durP2;ratioP2
58681;SDS011;44460;40.162;18.294;2023-03-01T00:02:05;34.85;;;7.07;;
58681;SDS011;44460;40.162;18.294;2023-03-01T00:04:30;34.47;;;8.50;;
58681;SDS011;44460;40.162;18.294;2023-03-01T00:06:56;47.53;;;8.13;;
58681;SDS011;44460;40.162;18.294;2023-03-01T00:09:21;32.92;;;7.22;;
58681;SDS011;44460;40.162;18.294;2023-03-01T00:11:47;34.30;;;7.78;;
58681;SDS011;44460;40.162;18.294;2023-03-01T00:14:13;25.70;;;7.10;;
58681;SDS011;44460;40.162;18.294;2023-03-01T00:16:39;36.78;;;7.43;;
58681;SDS011;44460;40.162;18.294;2023-03-01T00:19:06;41.20;;;7.32;;
58681;SDS011;44460;40.162;18.294;2023-03-01T00:21:31;46.75;;;8.32;;
58681;SDS011;44460;40.162;18.294;2023-03-01T00:23:57;34.72;;;7.00;;
58681;SDS011;44460;40.162;18.294;2023-03-01T00:26:23;33.08;;;6.65;;
58681;SDS011;44460;40.162;18.294;2023-03-01T00:28:49;25.30;;;5.75;;
58681;SDS011;44460;40.162;18.294;2023-03-01T00:31:15;31.42;;;6.20;;
58681;SDS011;44460;40.162;18.294;2023-03-01T00:33:41;33.53;;;6.25;;
58681;SDS011;44460;40.162;18.294;2023-03-01T00:36:07;51.70;;;7.18;;
58681;SDS011;44460;40.162;18.294;2023-03-01T00:38:36;35.80;;;6.57;;
58681;SDS011;44460;40.162;18.294;2023-03-01T00:41:05;38.45;;;6.93;;
58681;SDS011;44460;40.162;18.294;2023-03-01T00:43:31;39.92;;;6.35;;
58681;SDS011;44460;40.162;18.294;2023-03-01T00:46:34;41.75;;;6.63;;
58681;SDS011;44460;40.162;18.294;2023-03-01T00:48:55;42.10;;;6.97;;
58681;SDS011;44460;40.162;18.294;2023-03-01T00:51:21;45.47;;;8.35;;
58681;SDS011;44460;40.162;18.294;2023-03-01T00:53:49;32.40;;;7.32;;
58681;SDS011;44460;40.162;18.294;2023-03-01T00:56:15;31.63;;;6.35;;
58681;SDS011;44460;40.162;18.294;2023-03-01T00:58:40;41.55;;;6.78;;
58681;SDS011;44460;40.162;18.294;2023-03-01T01:01:10;32.92;;;7.43;;
58681;SDS011;44460;40.162;18.294;2023-03-01T01:08:45;39.28;;;6.50;;
58681;SDS011;44460;40.162;18.294;2023-03-01T01:11:11;28.95;;;6.53;;
58681;SDS011;44460;40.162;18.294;2023-03-01T01:13:37;30.67;;;6.50;;
58681;SDS011;44460;40.162;18.294;2023-03-01T01:16:02;43.95;;;7.35;;
58681;SDS011;44460;40.162;18.294;2023-03-01T01:18:28;36.20;;;7.05;;
58681;SDS011;44460;40.162;18.294;2023-03-01T01:20:53;32.75;;;7.55;;
58681;SDS011;44460;40.162;18.294;2023-03-01T01:23:19;44.63;;;8.50;;
58681;SDS011;44460;40.162;18.294;2023-03-01T01:25:45;37.83;;;7.32;;
58681;SDS011;44460;40.162;18.294;2023-03-01T01:28:11;32.58;;;6.15;;
58681;SDS011;44460;40.162;18.294;2023-03-01T01:30:36;44.97;;;7.15;;
58681;SDS011;44460;40.162;18.294;2023-03-01T01:33:02;31.58;;;7.60;;
58681;SDS011;44460;40.162;18.294;2023-03-01T01:35:27;37.55;;;6.13;;
58681;SDS011;44460;40.162;18.294;2023-03-01T01:37:53;40.75;;;6.00;;
58681;SDS011;44460;40.162;18.294;2023-03-01T01:40:19;41.65;;;6.90;;
58681;SDS011;44460;40.162;18.294;2023-03-01T01:42:44;35.35;;;6.35;;
58681;SDS011;44460;40.162;18.294;2023-03-01T01:45:24;28.95;;;5.80;;
58681;SDS011;44460;40.162;18.294;2023-03-01T01:47:50;39.58;;;6.35;;
58681;SDS011;44460;40.162;18.294;2023-03-01T01:50:16;39.00;;;6.72;;
58681;SDS011;44460;40.162;18.294;2023-03-01T01:52:43;48.05;;;6.70;;
58681;SDS011;44460;40.162;18.294;2023-03-01T01:55:14;34.33;;;6.93;;
58681;SDS011;44460;40.162;18.294;2023-03-01T01:57:42;40.20;;;8.95;;
58681;SDS011;44460;40.162;18.294;2023-03-01T02:00:12;36.13;;;8.38;;
58681;SDS011;44460;40.162;18.294;2023-03-01T02:02:42;36.35;;;9.30;;
58681;SDS011;44460;40.162;18.294;2023-03-01T02:05:15;40.88;;;7.97;;
58681;SDS011;44460;40.162;18.294;2023-03-01T02:07:42;31.73;;;8.50;;
58681;SDS011;44460;40.162;18.294;2023-03-01T02:10:08;42.67;;;9.77;;
58681;SDS011;44460;40.162;18.294;2023-03-01T02:12:34;45.58;;;8.82;;
58681;SDS011;44460;40.162;18.294;2023-03-01T02:15:00;61.22;;;10.73;;
58681;SDS011;44460;40.162;18.294;2023-03-01T02:17:26;39.50;;;11.32;;
58681;SDS011;44460;40.162;18.294;2023-03-01T02:19:59;51.38;;;10.90;;
58681;SDS011;44460;40.162;18.294;2023-03-01T02:22:27;50.95;;;11.45;;
58681;SDS011;44460;40.162;18.294;2023-03-01T02:30:22;52.30;;;11.85;;
58681;SDS011;44460;40.162;18.294;2023-03-01T02:32:48;65.47;;;14.25;;
58681;SDS011;44460;40.162;18.294;2023-03-01T02:35:14;53.88;;;14.88;;
58681;SDS011;44460;40.162;18.294;2023-03-01T02:37:41;60.63;;;14.93;;
58681;SDS011;44460;40.162;18.294;2023-03-01T02:40:08;57.63;;;15.95;;
58681;SDS011;44460;40.162;18.294;2023-03-01T02:42:40;57.40;;;15.90;;
58681;SDS011;44460;40.162;18.294;2023-03-01T02:45:07;60.28;;;17.38;;
58681;SDS011;44460;40.162;18.294;2023-03-01T02:47:32;52.17;;;18.83;;
58681;SDS011;44460;40.162;18.294;2023-03-01T02:49:57;56.38;;;16.02;;
58681;SDS011;44460;40.162;18.294;2023-03-01T02:54:50;54.47;;;19.05;;
58681;SDS011;44460;40.162;18.294;2023-03-01T02:57:20;62.90;;;18.50;;
58681;SDS011;44460;40.162;18.294;2023-03-01T02:59:47;60.60;;;19.20;;
58681;SDS011;44460;40.162;18.294;2023-03-01T03:02:20;64.57;;;17.95;;
58681;SDS011;44460;40.162;18.294;2023-03-01T03:04:47;67.28;;;17.05;;
58681;SDS011;44460;40.162;18.294;2023-03-01T03:07:12;52.88;;;16.98;;
58681;SDS011;44460;40.162;18.294;2023-03-01T03:09:38;61.50;;;17.77;;
58681;SDS011;44460;40.162;18.294;2023-03-01T03:12:03;67.20;;;19.52;;
58681;SDS011;44460;40.162;18.294;2023-03-01T03:14:29;57.90;;;19.25;;
58681;SDS011;44460;40.162;18.294;2023-03-01T03:16:55;56.00;;;20.20;;
58681;SDS011;44460;40.162;18.294;2023-03-01T03:19:20;56.60;;;20.88;;
58681;SDS011;44460;40.162;18.294;2023-03-01T03:21:45;59.33;;;20.60;;
58681;SDS011;44460;40.162;18.294;2023-03-01T03:24:11;56.47;;;20.02;;
58681;SDS011;44460;40.162;18.294;2023-03-01T03:26:36;53.05;;;17.30;;
58681;SDS011;44460;40.162;18.294;2023-03-01T03:29:02;55.42;;;18.52;;
58681;SDS011;44460;40.162;18.294;2023-03-01T03:31:27;56.65;;;18.23;;
58681;SDS011;44460;40.162;18.294;2023-03-01T03:33:53;67.25;;;20.63;;
58681;SDS011;44460;40.162;18.294;2023-03-01T03:36:20;56.70;;;21.67;;
58681;SDS011;44460;40.162;18.294;2023-03-01T03:38:45;70.90;;;20.88;;
58681;SDS011;44460;40.162;18.294;2023-03-01T03:41:11;59.17;;;21.25;;
58681;SDS011;44460;40.162;18.294;2023-03-01T03:43:37;69.32;;;21.58;;
58681;SDS011;44460;40.162;18.294;2023-03-01T03:46:03;78.35;;;21.45;;
58681;SDS011;44460;40.162;18.294;2023-03-01T03:48:35;56.20;;;18.45;;
58681;SDS011;44460;40.162;18.294;2023-03-01T03:51:01;56.55;;;20.42;;
58681;SDS011;44460;40.162;18.294;2023-03-01T03:53:27;57.22;;;21.35;;
58681;SDS011;44460;40.162;18.294;2023-03-01T03:55:53;56.33;;;19.85;;
58681;SDS011;44460;40.162;18.294;2023-03-01T03:58:19;61.30;;;19.67;;
58681;SDS011;44460;40.162;18.294;2023-03-01T04:00:45;69.03;;;20.30;;
58681;SDS011;44460;40.162;18.294;2023-03-01T04:03:12;57.72;;;20.55;;
58681;SDS011;44460;40.162;18.294;2023-03-01T04:05:38;72.82;;;20.95;;
58681;SDS011;44460;40.162;18.294;2023-03-01T04:08:04;52.92;;;19.08;;
58681;SDS011;44460;40.162;18.294;2023-03-01T04:10:42;52.83;;;19.48;;
58681;SDS011;44460;40.162;18.294;2023-03-01T04:13:12;63.75;;;20.27;;
58681;SDS011;44460;40.162;18.294;2023-03-01T04:15:38;64.28;;;21.23;;
58681;SDS011;44460;40.162;18.294;2023-03-01T04:18:04;50.85;;;20.02;;
58681;SDS011;44460;40.162;18.294;2023-03-01T04:20:30;55.25;;;20.15;;
58681;SDS011;44460;40.162;18.294;2023-03-01T04:25:24;54.95;;;21.73;;
58681;SDS011;44460;40.162;18.294;2023-03-01T04:27:51;59.88;;;22.40;;
58681;SDS011;44460;40.162;18.294;2023-03-01T04:30:16;86.47;;;23.50;;
58681;SDS011;44460;40.162;18.294;2023-03-01T04:32:42;79.82;;;21.45;;
58681;SDS011;44460;40.162;18.294;2023-03-01T04:35:08;65.68;;;23.00;;
58681;SDS011;44460;40.162;18.294;2023-03-01T04:37:33;58.22;;;21.48;;
58681;SDS011;44460;40.162;18.294;2023-03-01T04:40:00;55.80;;;21.50;;
58681;SDS011;44460;40.162;18.294;2023-03-01T04:42:25;55.53;;;21.75;;
58681;SDS011;44460;40.162;18.294;2023-03-01T04:44:50;68.43;;;23.95;;
58681;SDS011;44460;40.162;18.294;2023-03-01T04:47:16;68.45;;;22.65;;
58681;SDS011;44460;40.162;18.294;2023-03-01T04:49:42;59.33;;;23.23;;
58681;SDS011;44460;40.162;18.294;2023-03-01T04:52:07;60.25;;;22.73;;
58681;SDS011;44460;40.162;18.294;2023-03-01T04:54:34;66.18;;;24.40;;
58681;SDS011;44460;40.162;18.294;2023-03-01T04:57:00;65.70;;;24.95;;
58681;SDS011;44460;40.162;18.294;2023-03-01T04:59:26;64.82;;;23.90;;
58681;SDS011;44460;40.162;18.294;2023-03-01T05:01:52;69.30;;;25.45;;
58681;SDS011;44460;40.162;18.294;2023-03-01T05:04:21;58.53;;;21.92;;
58681;SDS011;44460;40.162;18.294;2023-03-01T05:06:46;59.60;;;22.42;;
58681;SDS011;44460;40.162;18.294;2023-03-01T05:09:12;60.88;;;23.48;;
58681;SDS011;44460;40.162;18.294;2023-03-01T05:11:37;63.70;;;23.88;;
58681;SDS011;44460;40.162;18.294;2023-03-01T05:14:03;68.68;;;24.05;;
58681;SDS011;44460;40.162;18.294;2023-03-01T05:16:29;57.70;;;23.27;;
58681;SDS011;44460;40.162;18.294;2023-03-01T05:18:55;58.80;;;24.60;;
58681;SDS011;44460;40.162;18.294;2023-03-01T05:21:22;53.42;;;23.75;;
58681;SDS011;44460;40.162;18.294;2023-03-01T05:23:47;65.13;;;24.45;;
58681;SDS011;44460;40.162;18.294;2023-03-01T05:26:12;75.30;;;25.38;;
58681;SDS011;44460;40.162;18.294;2023-03-01T05:28:38;64.20;;;23.38;;
58681;SDS011;44460;40.162;18.294;2023-03-01T05:31:04;63.35;;;22.40;;
58681;SDS011;44460;40.162;18.294;2023-03-01T05:33:38;67.35;;;23.45;;
58681;SDS011;44460;40.162;18.294;2023-03-01T05:36:04;56.63;;;24.00;;
58681;SDS011;44460;40.162;18.294;2023-03-01T05:38:29;57.22;;;23.40;;
58681;SDS011;44460;40.162;18.294;2023-03-01T05:40:55;72.82;;;25.38;;
58681;SDS011;44460;40.162;18.294;2023-03-01T05:43:20;74.97;;;26.20;;
58681;SDS011;44460;40.162;18.294;2023-03-01T05:45:46;67.90;;;24.63;;
58681;SDS011;44460;40.162;18.294;2023-03-01T05:48:11;67.53;;;24.95;;
58681;SDS011;44460;40.162;18.294;2023-03-01T05:50:38;64.15;;;23.10;;
58681;SDS011;44460;40.162;18.294;2023-03-01T05:55:36;66.10;;;26.23;;
58681;SDS011;44460;40.162;18.294;2023-03-01T05:58:03;64.22;;;25.00;;
58681;SDS011;44460;40.162;18.294;2023-03-01T06:00:29;81.03;;;27.58;;
58681;SDS011;44460;40.162;18.294;2023-03-01T06:02:55;69.45;;;27.08;;
58681;SDS011;44460;40.162;18.294;2023-03-01T06:05:21;76.00;;;25.45;;
58681;SDS011;44460;40.162;18.294;2023-03-01T06:07:47;69.10;;;25.08;;
58681;SDS011;44460;40.162;18.294;2023-03-01T06:10:13;79.18;;;26.67;;
58681;SDS011;44460;40.162;18.294;2023-03-01T06:12:39;61.38;;;26.23;;
58681;SDS011;44460;40.162;18.294;2023-03-01T06:15:05;72.55;;;25.70;;
58681;SDS011;44460;40.162;18.294;2023-03-01T06:17:31;79.60;;;27.02;;
58681;SDS011;44460;40.162;18.294;2023-03-01T06:19:57;66.80;;;25.85;;
58681;SDS011;44460;40.162;18.294;2023-03-01T06:22:22;72.40;;;25.33;;
58681;SDS011;44460;40.162;18.294;2023-03-01T06:24:48;85.57;;;28.35;;
58681;SDS011;44460;40.162;18.294;2023-03-01T06:27:13;77.97;;;28.67;;
58681;SDS011;44460;40.162;18.294;2023-03-01T06:29:38;68.13;;;26.65;;
58681;SDS011;44460;40.162;18.294;2023-03-01T06:32:04;73.95;;;27.80;;
58681;SDS011;44460;40.162;18.294;2023-03-01T06:34:30;84.00;;;28.63;;
58681;SDS011;44460;40.162;18.294;2023-03-01T06:36:55;74.13;;;29.30;;
58681;SDS011;44460;40.162;18.294;2023-03-01T06:39:21;75.63;;;26.92;;
58681;SDS011;44460;40.162;18.294;2023-03-01T06:41:46;83.22;;;29.77;;
58681;SDS011;44460;40.162;18.294;2023-03-01T06:44:12;81.15;;;28.45;;
58681;SDS011;44460;40.162;18.294;2023-03-01T06:46:38;79.95;;;27.13;;
58681;SDS011;44460;40.162;18.294;2023-03-01T06:49:04;83.70;;;29.20;;
58681;SDS011;44460;40.162;18.294;2023-03-01T06:51:32;80.45;;;30.48;;
58681;SDS011;44460;40.162;18.294;2023-03-01T06:53:58;81.47;;;28.02;;
58681;SDS011;44460;40.162;18.294;2023-03-01T06:56:23;88.20;;;29.08;;
58681;SDS011;44460;40.162;18.294;2023-03-01T06:58:50;85.72;;;27.85;;
58681;SDS011;44460;40.162;18.294;2023-03-01T07:01:16;75.03;;;28.88;;
58681;SDS011;44460;40.162;18.294;2023-03-01T07:03:41;71.05;;;29.77;;
58681;SDS011;44460;40.162;18.294;2023-03-01T07:06:09;84.72;;;27.92;;
58681;SDS011;44460;40.162;18.294;2023-03-01T07:08:35;84.03;;;27.40;;
58681;SDS011;44460;40.162;18.294;2023-03-01T07:11:00;70.28;;;28.50;;
58681;SDS011;44460;40.162;18.294;2023-03-01T07:13:27;73.80;;;29.83;;
58681;SDS011;44460;40.162;18.294;2023-03-01T07:15:53;69.15;;;28.88;;
58681;SDS011;44460;40.162;18.294;2023-03-01T07:18:18;82.22;;;29.05;;
58681;SDS011;44460;40.162;18.294;2023-03-01T07:20:44;81.57;;;27.33;;
58681;SDS011;44460;40.162;18.294;2023-03-01T07:23:09;78.97;;;27.52;;
58681;SDS011;44460;40.162;18.294;2023-03-01T07:25:35;96.35;;;29.60;;
58681;SDS011;44460;40.162;18.294;2023-03-01T07:28:00;71.72;;;27.75;;
58681;SDS011;44460;40.162;18.294;2023-03-01T07:30:25;83.55;;;28.48;;
58681;SDS011;44460;40.162;18.294;2023-03-01T07:32:53;69.28;;;28.15;;
58681;SDS011;44460;40.162;18.294;2023-03-01T07:35:19;87.00;;;27.52;;
58681;SDS011;44460;40.162;18.294;2023-03-01T07:37:45;76.63;;;26.85;;
58681;SDS011;44460;40.162;18.294;2023-03-01T07:40:10;87.75;;;29.08;;
58681;SDS011;44460;40.162;18.294;2023-03-01T07:42:36;71.70;;;25.92;;
58681;SDS011;44460;40.162;18.294;2023-03-01T07:45:02;79.82;;;27.50;;
58681;SDS011;44460;40.162;18.294;2023-03-01T07:47:27;75.53;;;26.92;;
58681;SDS011;44460;40.162;18.294;2023-03-01T07:49:53;79.85;;;28.02;;
58681;SDS011;44460;40.162;18.294;2023-03-01T07:52:18;77.30;;;28.08;;
58681;SDS011;44460;40.162;18.294;2023-03-01T07:54:44;79.88;;;29.02;;
58681;SDS011;44460;40.162;18.294;2023-03-01T07:57:10;79.03;;;27.80;;
58681;SDS011;44460;40.162;18.294;2023-03-01T07:59:35;72.43;;;27.90;;
58681;SDS011;44460;40.162;18.294;2023-03-01T08:02:00;62.85;;;23.35;;
58681;SDS011;44460;40.162;18.294;2023-03-01T08:04:26;74.75;;;27.42;;
58681;SDS011;44460;40.162;18.294;2023-03-01T08:06:52;82.82;;;26.55;;
58681;SDS011;44460;40.162;18.294;2023-03-01T08:09:17;83.00;;;26.88;;
58681;SDS011;44460;40.162;18.294;2023-03-01T08:11:43;75.50;;;25.52;;
58681;SDS011;44460;40.162;18.294;2023-03-01T08:14:08;68.85;;;26.77;;
58681;SDS011;44460;40.162;18.294;2023-03-01T08:16:34;67.78;;;25.13;;
58681;SDS011;44460;40.162;18.294;2023-03-01T08:19:04;75.65;;;25.42;;
58681;SDS011;44460;40.162;18.294;2023-03-01T08:21:29;81.68;;;27.90;;
58681;SDS011;44460;40.162;18.294;2023-03-01T08:23:54;70.53;;;26.52;;
58681;SDS011;44460;40.162;18.294;2023-03-01T08:26:20;71.10;;;25.13;;
58681;SDS011;44460;40.162;18.294;2023-03-01T08:28:46;72.30;;;24.55;;
58681;SDS011;44460;40.162;18.294;2023-03-01T08:31:17;70.65;;;23.30;;
58681;SDS011;44460;40.162;18.294;2023-03-01T08:33:42;77.30;;;23.83;;
58681;SDS011;44460;40.162;18.294;2023-03-01T08:36:08;79.45;;;24.08;;
58681;SDS011;44460;40.162;18.294;2023-03-01T08:38:34;74.35;;;25.27;;
58681;SDS011;44460;40.162;18.294;2023-03-01T08:41:00;83.40;;;25.35;;
58681;SDS011;44460;40.162;18.294;2023-03-01T08:43:26;83.43;;;23.80;;
58681;SDS011;44460;40.162;18.294;2023-03-01T08:45:51;71.18;;;22.48;;
58681;SDS011;44460;40.162;18.294;2023-03-01T08:48:16;53.53;;;20.98;;
58681;SDS011;44460;40.162;18.294;2023-03-01T08:50:42;63.80;;;20.25;;
58681;SDS011;44460;40.162;18.294;2023-03-01T08:53:07;66.30;;;19.05;;
58681;SDS011;44460;40.162;18.294;2023-03-01T08:55:32;75.38;;;21.67;;
58681;SDS011;44460;40.162;18.294;2023-03-01T08:57:58;66.30;;;19.08;;
58681;SDS011;44460;40.162;18.294;2023-03-01T09:00:24;71.78;;;19.73;;
58681;SDS011;44460;40.162;18.294;2023-03-01T09:02:50;70.57;;;18.95;;
58681;SDS011;44460;40.162;18.294;2023-03-01T09:05:15;72.38;;;18.70;;
58681;SDS011;44460;40.162;18.294;2023-03-01T09:07:40;67.93;;;18.40;;
58681;SDS011;44460;40.162;18.294;2023-03-01T09:10:06;67.82;;;16.33;;
58681;SDS011;44460;40.162;18.294;2023-03-01T09:12:32;64.13;;;16.95;;
58681;SDS011;44460;40.162;18.294;2023-03-01T09:14:57;73.88;;;17.08;;
58681;SDS011;44460;40.162;18.294;2023-03-01T09:17:22;74.25;;;15.52;;
58681;SDS011;44460;40.162;18.294;2023-03-01T09:19:48;69.63;;;13.68;;
58681;SDS011;44460;40.162;18.294;2023-03-01T09:22:14;64.22;;;14.00;;
58681;SDS011;44460;40.162;18.294;2023-03-01T09:24:39;61.30;;;13.90;;
58681;SDS011;44460;40.162;18.294;2023-03-01T09:27:05;54.17;;;12.10;;
58681;SDS011;44460;40.162;18.294;2023-03-01T09:29:35;66.60;;;14.02;;
58681;SDS011;44460;40.162;18.294;2023-03-01T09:32:00;71.35;;;13.05;;
58681;SDS011;44460;40.162;18.294;2023-03-01T09:34:25;63.00;;;14.45;;
58681;SDS011;44460;40.162;18.294;2023-03-01T09:36:51;70.40;;;13.82;;
58681;SDS011;44460;40.162;18.294;2023-03-01T09:39:17;64.70;;;12.88;;
58681;SDS011;44460;40.162;18.294;2023-03-01T09:41:59;61.45;;;13.10;;
58681;SDS011;44460;40.162;18.294;2023-03-01T09:44:44;77.43;;;13.50;;
58681;SDS011;44460;40.162;18.294;2023-03-01T09:47:14;89.95;;;14.45;;
58681;SDS011;44460;40.162;18.294;2023-03-01T09:49:41;60.85;;;13.80;;
58681;SDS011;44460;40.162;18.294;2023-03-01T09:52:19;59.22;;;13.57;;
58681;SDS011;44460;40.162;18.294;2023-03-01T09:54:46;74.60;;;13.82;;
58681;SDS011;44460;40.162;18.294;2023-03-01T09:59:44;71.35;;;11.60;;
58681;SDS011;44460;40.162;18.294;2023-03-01T10:04:46;71.22;;;12.18;;
58681;SDS011;44460;40.162;18.294;2023-03-01T10:09:38;54.95;;;11.50;;
58681;SDS011;44460;40.162;18.294;2023-03-01T10:12:07;73.53;;;12.07;;
58681;SDS011;44460;40.162;18.294;2023-03-01T10:14:43;56.70;;;10.55;;
58681;SDS011;44460;40.162;18.294;2023-03-01T10:19:43;54.00;;;11.07;;
58681;SDS011;44460;40.162;18.294;2023-03-01T10:24:43;56.88;;;10.52;;
58681;SDS011;44460;40.162;18.294;2023-03-01T10:27:23;66.53;;;11.40;;
58681;SDS011;44460;40.162;18.294;2023-03-01T10:29:50;63.47;;;10.73;;
58681;SDS011;44460;40.162;18.294;2023-03-01T10:32:17;65.18;;;11.32;;
58681;SDS011;44460;40.162;18.294;2023-03-01T10:34:43;56.80;;;12.25;;
58681;SDS011;44460;40.162;18.294;2023-03-01T10:39:34;73.57;;;10.93;;
58681;SDS011;44460;40.162;18.294;2023-03-01T10:42:03;63.05;;;14.18;;
58681;SDS011;44460;40.162;18.294;2023-03-01T10:44:36;83.93;;;12.55;;
58681;SDS011;44460;40.162;18.294;2023-03-01T10:47:02;59.55;;;10.02;;
58681;SDS011;44460;40.162;18.294;2023-03-01T10:49:27;68.88;;;11.20;;
58681;SDS011;44460;40.162;18.294;2023-03-01T10:51:53;65.03;;;12.45;;
58681;SDS011;44460;40.162;18.294;2023-03-01T10:56:48;60.97;;;9.50;;
58681;SDS011;44460;40.162;18.294;2023-03-01T11:02:02;70.18;;;9.00;;
58681;SDS011;44460;40.162;18.294;2023-03-01T11:04:27;75.65;;;10.68;;
58681;SDS011;44460;40.162;18.294;2023-03-01T11:06:59;65.43;;;10.50;;
58681;SDS011;44460;40.162;18.294;2023-03-01T11:09:25;56.25;;;10.20;;
58681;SDS011;44460;40.162;18.294;2023-03-01T11:11:56;56.45;;;10.00;;
58681;SDS011;44460;40.162;18.294;2023-03-01T11:14:22;63.60;;;9.98;;
58681;SDS011;44460;40.162;18.294;2023-03-01T11:16:58;64.28;;;11.05;;
58681;SDS011;44460;40.162;18.294;2023-03-01T11:19:24;61.63;;;9.50;;
58681;SDS011;44460;40.162;18.294;2023-03-01T11:24:18;53.83;;;10.18;;
58681;SDS011;44460;40.162;18.294;2023-03-01T11:26:50;58.17;;;10.38;;
58681;SDS011;44460;40.162;18.294;2023-03-01T11:29:27;54.33;;;9.52;;
58681;SDS011;44460;40.162;18.294;2023-03-01T11:31:56;47.72;;;9.20;;
58681;SDS011;44460;40.162;18.294;2023-03-01T11:34:43;68.15;;;9.50;;
58681;SDS011;44460;40.162;18.294;2023-03-01T11:37:10;66.45;;;8.82;;
58681;SDS011;44460;40.162;18.294;2023-03-01T11:39:53;51.50;;;7.78;;
58681;SDS011;44460;40.162;18.294;2023-03-01T11:42:39;54.72;;;9.20;;
58681;SDS011;44460;40.162;18.294;2023-03-01T11:45:08;50.95;;;8.48;;
58681;SDS011;44460;40.162;18.294;2023-03-01T11:47:45;83.35;;;10.10;;
58681;SDS011;44460;40.162;18.294;2023-03-01T11:50:26;55.88;;;9.40;;
58681;SDS011;44460;40.162;18.294;2023-03-01T12:14:13;56.35;;;10.10;;
58681;SDS011;44460;40.162;18.294;2023-03-01T12:21:51;74.95;;;9.85;;
58681;SDS011;44460;40.162;18.294;2023-03-01T12:32:35;60.10;;;9.55;;
58681;SDS011;44460;40.162;18.294;2023-03-01T12:47:19;62.72;;;9.23;;
58681;SDS011;44460;40.162;18.294;2023-03-01T12:49:49;70.22;;;9.80;;
58681;SDS011;44460;40.162;18.294;2023-03-01T12:52:26;69.63;;;9.68;;
58681;SDS011;44460;40.162;18.294;2023-03-01T12:54:54;70.35;;;10.88;;
58681;SDS011;44460;40.162;18.294;2023-03-01T13:02:22;68.40;;;11.27;;
58681;SDS011;44460;40.162;18.294;2023-03-01T13:10:21;48.40;;;8.00;;
58681;SDS011;44460;40.162;18.294;2023-03-01T13:17:46;55.15;;;9.75;;
58681;SDS011;44460;40.162;18.294;2023-03-01T13:20:13;65.68;;;8.85;;
58681;SDS011;44460;40.162;18.294;2023-03-01T13:22:39;50.88;;;8.93;;
58681;SDS011;44460;40.162;18.294;2023-03-01T13:25:15;43.72;;;8.90;;
58681;SDS011;44460;40.162;18.294;2023-03-01T13:27:43;70.05;;;11.85;;
58681;SDS011;44460;40.162;18.294;2023-03-01T13:32:52;63.53;;;11.45;;
58681;SDS011;44460;40.162;18.294;2023-03-01T13:35:41;56.08;;;12.15;;
58681;SDS011;44460;40.162;18.294;2023-03-01T13:43:23;46.35;;;8.75;;
58681;SDS011;44460;40.162;18.294;2023-03-01T13:45:52;61.13;;;9.15;;
58681;SDS011;44460;40.162;18.294;2023-03-01T13:48:22;55.42;;;9.55;;
58681;SDS011;44460;40.162;18.294;2023-03-01T13:50:50;58.15;;;9.05;;
58681;SDS011;44460;40.162;18.294;2023-03-01T13:53:20;57.97;;;8.88;;
58681;SDS011;44460;40.162;18.294;2023-03-01T13:55:55;52.03;;;10.05;;
58681;SDS011;44460;40.162;18.294;2023-03-01T13:58:22;48.08;;;8.93;;
58681;SDS011;44460;40.162;18.294;2023-03-01T14:00:54;49.28;;;7.90;;
58681;SDS011;44460;40.162;18.294;2023-03-01T14:03:20;43.45;;;8.07;;
58681;SDS011;44460;40.162;18.294;2023-03-01T14:08:24;44.70;;;8.77;;
58681;SDS011;44460;40.162;18.294;2023-03-01T14:11:00;67.40;;;10.15;;
58681;SDS011;44460;40.162;18.294;2023-03-01T14:18:26;71.72;;;11.85;;
58681;SDS011;44460;40.162;18.294;2023-03-01T14:20:55;60.50;;;14.82;;
58681;SDS011;44460;40.162;18.294;2023-03-01T14:23:21;46.65;;;8.63;;
58681;SDS011;44460;40.162;18.294;2023-03-01T14:25:48;50.72;;;7.18;;
58681;SDS011;44460;40.162;18.294;2023-03-01T14:28:24;59.42;;;9.88;;
58681;SDS011;44460;40.162;18.294;2023-03-01T14:30:52;53.33;;;7.45;;
58681;SDS011;44460;40.162;18.294;2023-03-01T14:33:19;75.18;;;9.68;;
58681;SDS011;44460;40.162;18.294;2023-03-01T14:35:51;62.05;;;9.77;;
58681;SDS011;44460;40.162;18.294;2023-03-01T14:38:21;49.05;;;8.00;;
58681;SDS011;44460;40.162;18.294;2023-03-01T14:40:46;43.40;;;8.07;;
58681;SDS011;44460;40.162;18.294;2023-03-01T14:43:16;59.53;;;9.93;;
58681;SDS011;44460;40.162;18.294;2023-03-01T14:45:46;38.17;;;6.30;;
58681;SDS011;44460;40.162;18.294;2023-03-01T14:48:12;50.17;;;8.02;;
58681;SDS011;44460;40.162;18.294;2023-03-01T14:50:40;63.47;;;9.32;;
58681;SDS011;44460;40.162;18.294;2023-03-01T14:53:06;45.03;;;6.60;;
58681;SDS011;44460;40.162;18.294;2023-03-01T14:55:37;63.20;;;6.67;;
58681;SDS011;44460;40.162;18.294;2023-03-01T14:58:04;48.03;;;7.85;;
58681;SDS011;44460;40.162;18.294;2023-03-01T15:00:31;53.22;;;6.78;;
58681;SDS011;44460;40.162;18.294;2023-03-01T15:02:58;54.67;;;7.35;;
58681;SDS011;44460;40.162;18.294;2023-03-01T15:05:27;43.85;;;7.40;;
58681;SDS011;44460;40.162;18.294;2023-03-01T15:07:54;45.70;;;9.57;;
58681;SDS011;44460;40.162;18.294;2023-03-01T15:10:22;31.25;;;7.10;;
58681;SDS011;44460;40.162;18.294;2023-03-01T15:12:47;46.33;;;6.70;;
58681;SDS011;44460;40.162;18.294;2023-03-01T15:15:29;54.72;;;8.80;;
58681;SDS011;44460;40.162;18.294;2023-03-01T15:17:56;29.98;;;6.45;;
58681;SDS011;44460;40.162;18.294;2023-03-01T15:22:51;42.58;;;9.23;;
58681;SDS011;44460;40.162;18.294;2023-03-01T15:25:18;41.28;;;6.25;;
58681;SDS011;44460;40.162;18.294;2023-03-01T15:27:47;32.58;;;5.57;;
58681;SDS011;44460;40.162;18.294;2023-03-01T15:30:17;27.73;;;6.90;;
58681;SDS011;44460;40.162;18.294;2023-03-01T15:32:43;32.90;;;5.95;;
58681;SDS011;44460;40.162;18.294;2023-03-01T15:37:53;42.67;;;5.15;;
58681;SDS011;44460;40.162;18.294;2023-03-01T15:40:26;53.35;;;6.10;;
58681;SDS011;44460;40.162;18.294;2023-03-01T15:45:24;47.38;;;6.10;;
58681;SDS011;44460;40.162;18.294;2023-03-01T15:50:22;30.33;;;5.88;;
58681;SDS011;44460;40.162;18.294;2023-03-01T15:52:48;40.70;;;5.70;;
58681;SDS011;44460;40.162;18.294;2023-03-01T15:55:19;32.75;;;5.93;;
58681;SDS011;44460;40.162;18.294;2023-03-01T15:57:44;39.47;;;5.95;;
58681;SDS011;44460;40.162;18.294;2023-03-01T16:00:10;25.95;;;6.15;;
58681;SDS011;44460;40.162;18.294;2023-03-01T16:02:38;37.15;;;6.35;;
58681;SDS011;44460;40.162;18.294;2023-03-01T16:05:04;26.77;;;5.45;;
58681;SDS011;44460;40.162;18.294;2023-03-01T16:07:30;38.97;;;8.05;;
58681;SDS011;44460;40.162;18.294;2023-03-01T16:09:56;47.38;;;8.07;;
58681;SDS011;44460;40.162;18.294;2023-03-01T16:12:21;33.33;;;7.38;;
58681;SDS011;44460;40.162;18.294;2023-03-01T16:14:47;43.20;;;7.88;;
58681;SDS011;44460;40.162;18.294;2023-03-01T16:17:13;42.67;;;8.98;;
58681;SDS011;44460;40.162;18.294;2023-03-01T16:19:39;33.30;;;8.18;;
58681;SDS011;44460;40.162;18.294;2023-03-01T16:22:05;33.10;;;7.45;;
58681;SDS011;44460;40.162;18.294;2023-03-01T16:24:30;34.10;;;8.32;;